Terminal Aerodrome Forecast
Issued by NWS

Home | Current Version | Previous Version | Text Only | Print | Product List | Glossary On
Versions: 1 2 3 4 5 6 7 8 9 10 11 12 13 14 15 16
000
FTUS42 TJSJ 132300
TAFJPS
TAF
TJPS 132320Z 1400/1424 05005KT P6SM FEW030
     FM141400 15010KT P6SM FEW030
     FM142100 VRB06KT P6SM FEW030
      AMD NOT SKED TIL 140300=

USA.gov is the U.S. government's official web portal to all federal, state and local government web resources and services.